Matfield Green, Kansas
Current Conditions -  °F | °C
As of 1:53 PM on Wednesday 17 Dec 2014 (Local Time) from KEMP Reporting Station
Overcast Overcast  
Wind Chill: 23°   Ceiling: 1200
Heat Index: 29°   Visibility: 10mi
Dew Point: 24°   Wind: 6mph
Humidity: 82%   Direction: 100°E
Pressure: 30.22"   Gusts: NA
Location:  38.16°N, 96.56°W
Report Text: KEMP 171953Z AUTO 10005KT 10SM OVC012 M02/M04 A3022 RMK AO2 SLP250 T10171044
Loading
Personal Weather Stations






























Interactive Weather Map New forecast layout! Learn more

10-Day Weather Forecast

Advertisements
Track Severe Weather on mobile